Xun Long 5 — BYGW — position and weather

sailwx.info

Track history (hours):
 
Tides and Currents Weather Stations Pressure Air Temp Water Temp Dewpoint Dewpoint Depression Visibility Wind Speed Wind Dir Waves Ship Positions

Xun Long 5

Last reported at 2016-Sep-26 20:29 UTC. Time now 2016-Sep-26 20:45 UTC.
Position N 22°29' E 113°55'.

Length 34 m; draft 1.4 m.

Type: High speed craft. MMSI: 413471870.

Date/timePositionNaut miles runAvg speedWind from/ knotsBaromVisibWave heightAir tempDewpointWater temp
2016-Sep-26 20:29N 22°29' E 113°55'0 0.0
2016-Sep-26 19:29N 22°29' E 113°55'0 0.0
2016-Sep-26 15:29N 22°29' E 113°55'0 0.0
2016-Sep-26 11:30N 22°29' E 113°55'0 0.1
2016-Sep-26 08:33N 22°29' E 113°55'0 0.0
2016-Sep-26 02:33N 22°29' E 113°55'1311.0
2016-Sep-26 01:23N 22°20' E 114°05'10 7.8
2016-Sep-26 00:06N 22°23' E 113°55'6 2.4
2016-Sep-25 21:30N 22°29' E 113°55'0 0.0
2016-Sep-25 17:30N 22°29' E 113°55'0 0.0
2016-Sep-25 16:30N 22°29' E 113°55'0 0.0
2016-Sep-25 15:24N 22°29' E 113°55'0 0.0
2016-Sep-25 14:30N 22°29' E 113°55'0 0.0
2016-Sep-25 12:33N 22°29' E 113°55'21 9.9
2016-Sep-25 10:27N 22°13' E 113°40'2123.5
2016-Sep-25 09:33N 22°29' E 113°55'21 3.8
2016-Sep-25 04:04N 22°12' E 113°41'16 4.6
2016-Sep-25 00:32N 22°24' E 113°52'5 2.6
2016-Sep-24 22:33N 22°29' E 113°55'0 0.0
2016-Sep-24 21:33N 22°29' E 113°55'0 0.0
2016-Sep-24 19:33N 22°29' E 113°55'0 0.0
2016-Sep-24 18:33N 22°29' E 113°55'0 0.0
2016-Sep-24 17:33N 22°29' E 113°55'0 0.0
2016-Sep-24 16:33N 22°29' E 113°55'0 0.0
2016-Sep-24 14:33N 22°29' E 113°55'0 0.0
2016-Sep-24 12:33N 22°29' E 113°55'21 9.9
2016-Sep-24 10:27N 22°13' E 113°40'2123.3
2016-Sep-24 09:33N 22°29' E 113°55'4 0.7
2016-Sep-24 03:33N 22°25' E 113°53'2 0.6
2016-Sep-24 00:30N 22°24' E 113°52'6 1.1
2016-Sep-23 19:33N 22°29' E 113°55'0 0.0
2016-Sep-23 17:33N 22°29' E 113°55'0 0.0
2016-Sep-23 16:33N 22°29' E 113°55'0 0.0
2016-Sep-23 15:33N 22°29' E 113°55'5 2.4
2016-Sep-23 13:18N 22°23' E 113°54'5 1.5
2016-Sep-23 09:34N 22°29' E 113°55'4 1.4
2016-Sep-23 06:17N 22°25' E 113°52'18 8.7
2016-Sep-23 04:12N 22°11' E 113°39'1826.9
2016-Sep-23 03:32N 22°24' E 113°52'18 7.5
2016-Sep-23 01:08N 22°11' E 113°39'1828.9
2016-Sep-23 00:32N 22°24' E 113°52'5 5.4
2016-Sep-22 23:33N 22°29' E 113°55'0 0.0
2016-Sep-22 20:33N 22°29' E 113°55'0 0.0
2016-Sep-22 12:33N 22°29' E 113°55'0 0.0
2016-Sep-22 04:34N 22°29' E 113°55'1717.2
2016-Sep-22 03:33N 22°18' E 114°09'3 0.9
2016-Sep-22 00:33N 22°19' E 114°07'1514.6
2016-Sep-21 23:33N 22°29' E 113°55'0 0.0
2016-Sep-21 22:33N 22°29' E 113°55'0 0.0
2016-Sep-21 19:33N 22°29' E 113°55'11 1.1
2016-Sep-21 09:28N 22°21' E 114°03'1011.0
2016-Sep-21 08:33N 22°26' E 113°54'2 0.8
2016-Sep-21 05:33N 22°29' E 113°55'18 8.9
2016-Sep-21 03:33N 22°17' E 114°09'1514.6
2016-Sep-21 02:32N 22°23' E 113°54'5 0.3
2016-Sep-20 08:34N 22°29' E 113°55'2311.2
2016-Sep-20 06:32N 22°12' E 113°38'23 5.7
2016-Sep-20 02:33N 22°29' E 113°55'0 0.0
2016-Sep-19 23:30N 22°29' E 113°55'0 0.0
2016-Sep-19 19:30N 22°29' E 113°55'0 0.0
2016-Sep-19 18:24N 22°29' E 113°55'5 0.4
2016-Sep-19 06:20N 22°24' E 113°52'1 0.2
2016-Sep-19 03:24N 22°24' E 113°52'0 0.2
2016-Sep-19 00:32N 22°25' E 113°52'4 0.9
2016-Sep-18 19:33N 22°29' E 113°55'0 0.0
2016-Sep-18 15:33N 22°29' E 113°55'0 0.0
2016-Sep-18 14:33N 22°29' E 113°55'13 3.0
2016-Sep-18 10:21N 22°20' E 114°05'2 2.3
2016-Sep-18 09:33N 22°19' E 114°07'12 1.7
2016-Sep-18 02:31N 22°23' E 113°54'5 4.9
2016-Sep-18 01:26N 22°29' E 113°55'0 0.0
2016-Sep-18 00:33N 22°29' E 113°55'0 0.0
2016-Sep-17 22:21N 22°29' E 113°55'0 0.0
2016-Sep-17 21:33N 22°29' E 113°55'0 0.0
2016-Sep-17 20:33N 22°29' E 113°55'0 0.0
2016-Sep-17 19:15N 22°29' E 113°55'0 0.0
2016-Sep-17 13:34N 22°29' E 113°55'1816.8
2016-Sep-17 12:31N 22°17' E 114°09'5 2.4
2016-Sep-17 10:28N 22°20' E 114°05'2 1.9
2016-Sep-17 09:32N 22°21' E 114°03'1010.6
2016-Sep-17 08:34N 22°28' E 113°55'1713.7
2016-Sep-17 07:19N 22°17' E 114°09'18 8.9
2016-Sep-17 05:21N 22°29' E 113°55'0 0.0
2016-Sep-17 00:28N 22°29' E 113°55'  
Track history (hours):
 
Tides and Currents Weather Stations Pressure Air Temp Water Temp Dewpoint Dewpoint Depression Visibility Wind Speed Wind Dir Waves Ship Positions

Xun Long 5

Last reported at 2016-Sep-26 20:29 UTC. Time now 2016-Sep-26 20:45 UTC.
Position N 22°29' E 113°55'.

Length 34 m; draft 1.4 m.

Type: High speed craft. MMSI: 413471870.

Date/timePositionNaut miles runAvg speedWind from/ knotsBaromVisibWave heightAir tempDewpointWater temp
2016-Sep-26 20:29N 22°29' E 113°55'0 0.0
2016-Sep-26 19:29N 22°29' E 113°55'0 0.0
2016-Sep-26 15:29N 22°29' E 113°55'0 0.0
2016-Sep-26 11:30N 22°29' E 113°55'0 0.1
2016-Sep-26 08:33N 22°29' E 113°55'0 0.0
2016-Sep-26 02:33N 22°29' E 113°55'1311.0
2016-Sep-26 01:23N 22°20' E 114°05'10 7.8
2016-Sep-26 00:06N 22°23' E 113°55'6 2.4
2016-Sep-25 21:30N 22°29' E 113°55'0 0.0
2016-Sep-25 17:30N 22°29' E 113°55'0 0.0
2016-Sep-25 16:30N 22°29' E 113°55'0 0.0
2016-Sep-25 15:24N 22°29' E 113°55'0 0.0
2016-Sep-25 14:30N 22°29' E 113°55'0 0.0
2016-Sep-25 12:33N 22°29' E 113°55'21 9.9
2016-Sep-25 10:27N 22°13' E 113°40'2123.5
2016-Sep-25 09:33N 22°29' E 113°55'21 3.8
2016-Sep-25 04:04N 22°12' E 113°41'16 4.6
2016-Sep-25 00:32N 22°24' E 113°52'5 2.6
2016-Sep-24 22:33N 22°29' E 113°55'0 0.0
2016-Sep-24 21:33N 22°29' E 113°55'0 0.0
2016-Sep-24 19:33N 22°29' E 113°55'0 0.0
2016-Sep-24 18:33N 22°29' E 113°55'0 0.0
2016-Sep-24 17:33N 22°29' E 113°55'0 0.0
2016-Sep-24 16:33N 22°29' E 113°55'0 0.0
2016-Sep-24 14:33N 22°29' E 113°55'0 0.0
2016-Sep-24 12:33N 22°29' E 113°55'21 9.9
2016-Sep-24 10:27N 22°13' E 113°40'2123.3
2016-Sep-24 09:33N 22°29' E 113°55'4 0.7
2016-Sep-24 03:33N 22°25' E 113°53'2 0.6
2016-Sep-24 00:30N 22°24' E 113°52'6 1.1
2016-Sep-23 19:33N 22°29' E 113°55'0 0.0
2016-Sep-23 17:33N 22°29' E 113°55'0 0.0
2016-Sep-23 16:33N 22°29' E 113°55'0 0.0
2016-Sep-23 15:33N 22°29' E 113°55'5 2.4
2016-Sep-23 13:18N 22°23' E 113°54'5 1.5
2016-Sep-23 09:34N 22°29' E 113°55'4 1.4
2016-Sep-23 06:17N 22°25' E 113°52'18 8.7
2016-Sep-23 04:12N 22°11' E 113°39'1826.9
2016-Sep-23 03:32N 22°24' E 113°52'18 7.5
2016-Sep-23 01:08N 22°11' E 113°39'1828.9
2016-Sep-23 00:32N 22°24' E 113°52'5 5.4
2016-Sep-22 23:33N 22°29' E 113°55'0 0.0
2016-Sep-22 20:33N 22°29' E 113°55'0 0.0
2016-Sep-22 12:33N 22°29' E 113°55'0 0.0
2016-Sep-22 04:34N 22°29' E 113°55'1717.2
2016-Sep-22 03:33N 22°18' E 114°09'3 0.9
2016-Sep-22 00:33N 22°19' E 114°07'1514.6
2016-Sep-21 23:33N 22°29' E 113°55'0 0.0
2016-Sep-21 22:33N 22°29' E 113°55'0 0.0
2016-Sep-21 19:33N 22°29' E 113°55'11 1.1
2016-Sep-21 09:28N 22°21' E 114°03'1011.0
2016-Sep-21 08:33N 22°26' E 113°54'2 0.8
2016-Sep-21 05:33N 22°29' E 113°55'18 8.9
2016-Sep-21 03:33N 22°17' E 114°09'1514.6
2016-Sep-21 02:32N 22°23' E 113°54'5 0.3
2016-Sep-20 08:34N 22°29' E 113°55'2311.2
2016-Sep-20 06:32N 22°12' E 113°38'23 5.7
2016-Sep-20 02:33N 22°29' E 113°55'0 0.0
2016-Sep-19 23:30N 22°29' E 113°55'0 0.0
2016-Sep-19 19:30N 22°29' E 113°55'0 0.0
2016-Sep-19 18:24N 22°29' E 113°55'5 0.4
2016-Sep-19 06:20N 22°24' E 113°52'1 0.2
2016-Sep-19 03:24N 22°24' E 113°52'0 0.2
2016-Sep-19 00:32N 22°25' E 113°52'4 0.9
2016-Sep-18 19:33N 22°29' E 113°55'0 0.0
2016-Sep-18 15:33N 22°29' E 113°55'0 0.0
2016-Sep-18 14:33N 22°29' E 113°55'13 3.0
2016-Sep-18 10:21N 22°20' E 114°05'2 2.3
2016-Sep-18 09:33N 22°19' E 114°07'12 1.7
2016-Sep-18 02:31N 22°23' E 113°54'5 4.9
2016-Sep-18 01:26N 22°29' E 113°55'0 0.0
2016-Sep-18 00:33N 22°29' E 113°55'0 0.0
2016-Sep-17 22:21N 22°29' E 113°55'0 0.0
2016-Sep-17 21:33N 22°29' E 113°55'0 0.0
2016-Sep-17 20:33N 22°29' E 113°55'0 0.0
2016-Sep-17 19:15N 22°29' E 113°55'0 0.0
2016-Sep-17 13:34N 22°29' E 113°55'1816.8
2016-Sep-17 12:31N 22°17' E 114°09'5 2.4
2016-Sep-17 10:28N 22°20' E 114°05'2 1.9
2016-Sep-17 09:32N 22°21' E 114°03'1010.6
2016-Sep-17 08:34N 22°28' E 113°55'1713.7
2016-Sep-17 07:19N 22°17' E 114°09'18 8.9
2016-Sep-17 05:21N 22°29' E 113°55'0 0.0
2016-Sep-17 00:28N 22°29' E 113°55'  

Dump ship's entire track history